sensor_id;sensor_type;location;lat;lon;timestamp;pressure;altitude;pressure_sealevel;temperature
7389;BMP180;3735;50.136;11.062;2023-02-11T00:00:39;100048.00;;;-2.50
7389;BMP180;3735;50.136;11.062;2023-02-11T00:03:05;100061.00;;;-2.50
7389;BMP180;3735;50.136;11.062;2023-02-11T00:05:30;100058.00;;;-2.50
7389;BMP180;3735;50.136;11.062;2023-02-11T00:07:56;100059.00;;;-2.40
7389;BMP180;3735;50.136;11.062;2023-02-11T00:10:22;100051.00;;;-2.40
7389;BMP180;3735;50.136;11.062;2023-02-11T00:12:48;100045.00;;;-2.00
7389;BMP180;3735;50.136;11.062;2023-02-11T00:15:13;100041.00;;;-1.80
7389;BMP180;3735;50.136;11.062;2023-02-11T00:17:39;100040.00;;;-1.70
7389;BMP180;3735;50.136;11.062;2023-02-11T00:20:05;100010.00;;;-1.50
7389;BMP180;3735;50.136;11.062;2023-02-11T00:22:31;100021.00;;;-1.40
7389;BMP180;3735;50.136;11.062;2023-02-11T00:24:57;100019.00;;;-1.30
7389;BMP180;3735;50.136;11.062;2023-02-11T00:27:23;100001.00;;;-1.20
7389;BMP180;3735;50.136;11.062;2023-02-11T00:29:48;100009.00;;;-1.20
7389;BMP180;3735;50.136;11.062;2023-02-11T00:32:14;100010.00;;;-1.20
7389;BMP180;3735;50.136;11.062;2023-02-11T00:34:40;100002.00;;;-1.20
7389;BMP180;3735;50.136;11.062;2023-02-11T00:37:06;99989.00;;;-1.30
7389;BMP180;3735;50.136;11.062;2023-02-11T00:39:31;99994.00;;;-1.30
7389;BMP180;3735;50.136;11.062;2023-02-11T00:41:57;99984.00;;;-1.40
7389;BMP180;3735;50.136;11.062;2023-02-11T00:44:23;99983.00;;;-1.40
7389;BMP180;3735;50.136;11.062;2023-02-11T00:46:49;100003.00;;;-1.30
7389;BMP180;3735;50.136;11.062;2023-02-11T00:49:15;100008.00;;;-1.40
7389;BMP180;3735;50.136;11.062;2023-02-11T00:51:41;99984.00;;;-1.40
7389;BMP180;3735;50.136;11.062;2023-02-11T00:54:07;99983.00;;;-1.30
7389;BMP180;3735;50.136;11.062;2023-02-11T00:56:33;99979.00;;;-1.30
7389;BMP180;3735;50.136;11.062;2023-02-11T00:58:58;99984.00;;;-1.40
7389;BMP180;3735;50.136;11.062;2023-02-11T01:01:24;100002.00;;;-1.30
7389;BMP180;3735;50.136;11.062;2023-02-11T01:03:51;100001.00;;;-1.30
7389;BMP180;3735;50.136;11.062;2023-02-11T01:06:17;100006.00;;;-1.20
7389;BMP180;3735;50.136;11.062;2023-02-11T01:08:43;100010.00;;;-1.20
7389;BMP180;3735;50.136;11.062;2023-02-11T01:11:19;99979.00;;;-1.20
7389;BMP180;3735;50.136;11.062;2023-02-11T01:13:46;100000.00;;;-1.20
7389;BMP180;3735;50.136;11.062;2023-02-11T01:16:13;99997.00;;;-1.20
7389;BMP180;3735;50.136;11.062;2023-02-11T01:18:39;99984.00;;;-1.20
7389;BMP180;3735;50.136;11.062;2023-02-11T01:21:07;99991.00;;;-1.10
7389;BMP180;3735;50.136;11.062;2023-02-11T01:23:33;99983.00;;;-1.10
7389;BMP180;3735;50.136;11.062;2023-02-11T01:25:58;99977.00;;;-1.00
7389;BMP180;3735;50.136;11.062;2023-02-11T01:28:27;99976.00;;;-1.00
7389;BMP180;3735;50.136;11.062;2023-02-11T01:30:54;99974.00;;;-0.90
7389;BMP180;3735;50.136;11.062;2023-02-11T01:33:21;99933.00;;;-1.00
7389;BMP180;3735;50.136;11.062;2023-02-11T01:35:47;99950.00;;;-1.00
7389;BMP180;3735;50.136;11.062;2023-02-11T01:38:23;99958.00;;;-1.00
7389;BMP180;3735;50.136;11.062;2023-02-11T01:40:55;99951.00;;;-1.00
7389;BMP180;3735;50.136;11.062;2023-02-11T01:43:23;99948.00;;;-0.90
7389;BMP180;3735;50.136;11.062;2023-02-11T01:46:32;99959.00;;;-1.00
7389;BMP180;3735;50.136;11.062;2023-02-11T01:48:58;99950.00;;;-1.00
7389;BMP180;3735;50.136;11.062;2023-02-11T01:51:46;99945.00;;;-1.10
7389;BMP180;3735;50.136;11.062;2023-02-11T01:54:19;99943.00;;;-1.10
7389;BMP180;3735;50.136;11.062;2023-02-11T01:57:06;99926.00;;;-1.10
7389;BMP180;3735;50.136;11.062;2023-02-11T02:02:48;99910.00;;;-1.10
7389;BMP180;3735;50.136;11.062;2023-02-11T02:05:52;99921.00;;;-1.10
7389;BMP180;3735;50.136;11.062;2023-02-11T02:10:53;99900.00;;;-1.10
7389;BMP180;3735;50.136;11.062;2023-02-11T02:13:22;99893.00;;;-1.10
7389;BMP180;3735;50.136;11.062;2023-02-11T02:16:07;99914.00;;;-1.00
7389;BMP180;3735;50.136;11.062;2023-02-11T02:27:33;99913.00;;;-0.80
7389;BMP180;3735;50.136;11.062;2023-02-11T02:33:23;99906.00;;;-0.80
7389;BMP180;3735;50.136;11.062;2023-02-11T02:36:23;99912.00;;;-0.70
7389;BMP180;3735;50.136;11.062;2023-02-11T02:39:08;99887.00;;;-0.60
7389;BMP180;3735;50.136;11.062;2023-02-11T02:41:36;99894.00;;;-0.50
7389;BMP180;3735;50.136;11.062;2023-02-11T02:44:03;99896.00;;;-0.40
7389;BMP180;3735;50.136;11.062;2023-02-11T02:46:33;99898.00;;;-0.30
7389;BMP180;3735;50.136;11.062;2023-02-11T02:49:00;99895.00;;;-0.30
7389;BMP180;3735;50.136;11.062;2023-02-11T02:51:47;99890.00;;;-0.20
7389;BMP180;3735;50.136;11.062;2023-02-11T03:00:40;99879.00;;;-0.20
7389;BMP180;3735;50.136;11.062;2023-02-11T03:06:47;99877.00;;;-0.30
7389;BMP180;3735;50.136;11.062;2023-02-11T03:12:23;99867.00;;;-0.20
7389;BMP180;3735;50.136;11.062;2023-02-11T03:14:51;99854.00;;;-0.20
7389;BMP180;3735;50.136;11.062;2023-02-11T03:17:19;99868.00;;;-0.20
7389;BMP180;3735;50.136;11.062;2023-02-11T03:19:49;99872.00;;;-0.10
7389;BMP180;3735;50.136;11.062;2023-02-11T03:22:31;99879.00;;;0.00
7389;BMP180;3735;50.136;11.062;2023-02-11T03:24:59;99879.00;;;0.00
7389;BMP180;3735;50.136;11.062;2023-02-11T03:27:46;99875.00;;;-0.10
7389;BMP180;3735;50.136;11.062;2023-02-11T03:30:28;99876.00;;;-0.10
7389;BMP180;3735;50.136;11.062;2023-02-11T03:33:13;99876.00;;;0.00
7389;BMP180;3735;50.136;11.062;2023-02-11T03:35:53;99870.00;;;0.00
7389;BMP180;3735;50.136;11.062;2023-02-11T03:38:33;99868.00;;;-0.10
7389;BMP180;3735;50.136;11.062;2023-02-11T03:41:05;99854.00;;;-0.10
7389;BMP180;3735;50.136;11.062;2023-02-11T03:43:50;99865.00;;;-0.10
7389;BMP180;3735;50.136;11.062;2023-02-11T03:46:23;99852.00;;;-0.10
7389;BMP180;3735;50.136;11.062;2023-02-11T03:48:57;99837.00;;;-0.10
7389;BMP180;3735;50.136;11.062;2023-02-11T03:51:24;99817.00;;;-0.10
7389;BMP180;3735;50.136;11.062;2023-02-11T03:53:54;99809.00;;;0.00
7389;BMP180;3735;50.136;11.062;2023-02-11T03:56:26;99798.00;;;0.20
7389;BMP180;3735;50.136;11.062;2023-02-11T03:58:53;99789.00;;;0.40
7389;BMP180;3735;50.136;11.062;2023-02-11T04:01:19;99788.00;;;0.70
7389;BMP180;3735;50.136;11.062;2023-02-11T04:03:45;99798.00;;;0.70
7389;BMP180;3735;50.136;11.062;2023-02-11T04:06:10;99781.00;;;0.70
7389;BMP180;3735;50.136;11.062;2023-02-11T04:08:36;99796.00;;;0.60
7389;BMP180;3735;50.136;11.062;2023-02-11T04:11:02;99788.00;;;0.60
7389;BMP180;3735;50.136;11.062;2023-02-11T04:13:28;99806.00;;;0.60
7389;BMP180;3735;50.136;11.062;2023-02-11T04:15:54;99805.00;;;0.60
7389;BMP180;3735;50.136;11.062;2023-02-11T04:18:20;99819.00;;;0.50
7389;BMP180;3735;50.136;11.062;2023-02-11T04:20:46;99788.00;;;0.50
7389;BMP180;3735;50.136;11.062;2023-02-11T04:23:12;99826.00;;;0.50
7389;BMP180;3735;50.136;11.062;2023-02-11T04:25:38;99836.00;;;0.40
7389;BMP180;3735;50.136;11.062;2023-02-11T04:28:04;99818.00;;;0.30
7389;BMP180;3735;50.136;11.062;2023-02-11T04:30:30;99826.00;;;0.20
7389;BMP180;3735;50.136;11.062;2023-02-11T04:32:57;99799.00;;;0.10
7389;BMP180;3735;50.136;11.062;2023-02-11T04:35:23;99812.00;;;0.00
7389;BMP180;3735;50.136;11.062;2023-02-11T04:37:49;99810.00;;;0.00
7389;BMP180;3735;50.136;11.062;2023-02-11T04:40:15;99802.00;;;-0.10
7389;BMP180;3735;50.136;11.062;2023-02-11T04:42:40;99796.00;;;-0.20
7389;BMP180;3735;50.136;11.062;2023-02-11T04:45:07;99788.00;;;-0.20
7389;BMP180;3735;50.136;11.062;2023-02-11T04:47:33;99768.00;;;-0.30
7389;BMP180;3735;50.136;11.062;2023-02-11T04:49:59;99787.00;;;-0.30
7389;BMP180;3735;50.136;11.062;2023-02-11T04:52:25;99795.00;;;-0.40
7389;BMP180;3735;50.136;11.062;2023-02-11T04:54:50;99789.00;;;-0.30
7389;BMP180;3735;50.136;11.062;2023-02-11T04:57:16;99761.00;;;-0.30
7389;BMP180;3735;50.136;11.062;2023-02-11T04:59:42;99773.00;;;-0.30
7389;BMP180;3735;50.136;11.062;2023-02-11T05:02:07;99778.00;;;-0.30
7389;BMP180;3735;50.136;11.062;2023-02-11T05:04:33;99781.00;;;-0.30
7389;BMP180;3735;50.136;11.062;2023-02-11T05:06:59;99776.00;;;-0.30
7389;BMP180;3735;50.136;11.062;2023-02-11T05:09:24;99773.00;;;-0.30
7389;BMP180;3735;50.136;11.062;2023-02-11T05:11:50;99791.00;;;-0.30
7389;BMP180;3735;50.136;11.062;2023-02-11T05:14:16;99780.00;;;-0.40
7389;BMP180;3735;50.136;11.062;2023-02-11T05:16:42;99781.00;;;-0.30
7389;BMP180;3735;50.136;11.062;2023-02-11T05:19:07;99778.00;;;-0.30
7389;BMP180;3735;50.136;11.062;2023-02-11T05:21:33;99772.00;;;-0.30
7389;BMP180;3735;50.136;11.062;2023-02-11T05:23:59;99774.00;;;-0.40
7389;BMP180;3735;50.136;11.062;2023-02-11T05:26:25;99780.00;;;-0.40
7389;BMP180;3735;50.136;11.062;2023-02-11T05:28:51;99786.00;;;-0.40
7389;BMP180;3735;50.136;11.062;2023-02-11T05:31:17;99799.00;;;-0.40
7389;BMP180;3735;50.136;11.062;2023-02-11T05:33:43;99797.00;;;-0.50
7389;BMP180;3735;50.136;11.062;2023-02-11T05:36:11;99810.00;;;-0.40
7389;BMP180;3735;50.136;11.062;2023-02-11T05:38:39;99798.00;;;-0.40
7389;BMP180;3735;50.136;11.062;2023-02-11T05:41:06;99794.00;;;-0.30
7389;BMP180;3735;50.136;11.062;2023-02-11T05:43:32;99795.00;;;-0.20
7389;BMP180;3735;50.136;11.062;2023-02-11T05:45:59;99801.00;;;-0.10
7389;BMP180;3735;50.136;11.062;2023-02-11T05:48:25;99780.00;;;-0.10
7389;BMP180;3735;50.136;11.062;2023-02-11T05:50:51;99784.00;;;-0.10
7389;BMP180;3735;50.136;11.062;2023-02-11T05:53:17;99760.00;;;-0.10
7389;BMP180;3735;50.136;11.062;2023-02-11T05:55:42;99774.00;;;-0.10
7389;BMP180;3735;50.136;11.062;2023-02-11T05:58:09;99772.00;;;-0.20
7389;BMP180;3735;50.136;11.062;2023-02-11T06:00:35;99799.00;;;-0.20
7389;BMP180;3735;50.136;11.062;2023-02-11T06:03:01;99792.00;;;-0.20
7389;BMP180;3735;50.136;11.062;2023-02-11T06:05:29;99805.00;;;-0.30
7389;BMP180;3735;50.136;11.062;2023-02-11T06:07:54;99821.00;;;-0.40
7389;BMP180;3735;50.136;11.062;2023-02-11T06:10:20;99826.00;;;-0.40
7389;BMP180;3735;50.136;11.062;2023-02-11T06:12:46;99820.00;;;-0.40
7389;BMP180;3735;50.136;11.062;2023-02-11T06:15:12;99819.00;;;-0.30
7389;BMP180;3735;50.136;11.062;2023-02-11T06:17:38;99824.00;;;-0.30
7389;BMP180;3735;50.136;11.062;2023-02-11T06:20:07;99804.00;;;-0.20
7389;BMP180;3735;50.136;11.062;2023-02-11T06:22:33;99801.00;;;-0.10
7389;BMP180;3735;50.136;11.062;2023-02-11T06:24:59;99803.00;;;-0.10
7389;BMP180;3735;50.136;11.062;2023-02-11T06:27:25;99801.00;;;-0.10
7389;BMP180;3735;50.136;11.062;2023-02-11T06:29:51;99782.00;;;0.00
7389;BMP180;3735;50.136;11.062;2023-02-11T06:32:17;99791.00;;;0.00
7389;BMP180;3735;50.136;11.062;2023-02-11T06:34:44;99771.00;;;0.00
7389;BMP180;3735;50.136;11.062;2023-02-11T06:37:11;99772.00;;;0.10
7389;BMP180;3735;50.136;11.062;2023-02-11T06:39:36;99779.00;;;0.20
7389;BMP180;3735;50.136;11.062;2023-02-11T06:42:02;99785.00;;;0.30
7389;BMP180;3735;50.136;11.062;2023-02-11T06:44:28;99788.00;;;0.30
7389;BMP180;3735;50.136;11.062;2023-02-11T06:46:54;99776.00;;;0.40
7389;BMP180;3735;50.136;11.062;2023-02-11T06:49:20;99788.00;;;0.40
7389;BMP180;3735;50.136;11.062;2023-02-11T06:51:45;99794.00;;;0.50
7389;BMP180;3735;50.136;11.062;2023-02-11T06:54:11;99793.00;;;0.50
7389;BMP180;3735;50.136;11.062;2023-02-11T06:56:39;99799.00;;;0.50
7389;BMP180;3735;50.136;11.062;2023-02-11T06:59:05;99797.00;;;0.50
7389;BMP180;3735;50.136;11.062;2023-02-11T07:01:31;99799.00;;;0.60
7389;BMP180;3735;50.136;11.062;2023-02-11T07:03:57;99790.00;;;0.70
7389;BMP180;3735;50.136;11.062;2023-02-11T07:06:25;99789.00;;;0.70
7389;BMP180;3735;50.136;11.062;2023-02-11T07:08:54;99799.00;;;0.80
7389;BMP180;3735;50.136;11.062;2023-02-11T07:11:27;99804.00;;;0.70
7389;BMP180;3735;50.136;11.062;2023-02-11T07:13:58;99798.00;;;0.80
7389;BMP180;3735;50.136;11.062;2023-02-11T07:16:25;99791.00;;;0.90
7389;BMP180;3735;50.136;11.062;2023-02-11T07:18:51;99789.00;;;0.90
7389;BMP180;3735;50.136;11.062;2023-02-11T07:21:20;99820.00;;;1.00
7389;BMP180;3735;50.136;11.062;2023-02-11T07:23:47;99826.00;;;1.00
7389;BMP180;3735;50.136;11.062;2023-02-11T07:26:18;99836.00;;;1.10
7389;BMP180;3735;50.136;11.062;2023-02-11T07:28:44;99838.00;;;1.10
7389;BMP180;3735;50.136;11.062;2023-02-11T07:31:23;99826.00;;;1.20
7389;BMP180;3735;50.136;11.062;2023-02-11T07:33:52;99826.00;;;1.20
7389;BMP180;3735;50.136;11.062;2023-02-11T07:36:19;99813.00;;;1.20
7389;BMP180;3735;50.136;11.062;2023-02-11T07:38:45;99777.00;;;1.20
7389;BMP180;3735;50.136;11.062;2023-02-11T07:41:14;99787.00;;;1.30
7389;BMP180;3735;50.136;11.062;2023-02-11T07:43:41;99800.00;;;1.30
7389;BMP180;3735;50.136;11.062;2023-02-11T07:46:11;99797.00;;;1.30
7389;BMP180;3735;50.136;11.062;2023-02-11T07:48:37;99796.00;;;1.40
7389;BMP180;3735;50.136;11.062;2023-02-11T07:51:15;99795.00;;;1.50
7389;BMP180;3735;50.136;11.062;2023-02-11T07:53:41;99808.00;;;1.70
7389;BMP180;3735;50.136;11.062;2023-02-11T07:56:09;99806.00;;;1.90
7389;BMP180;3735;50.136;11.062;2023-02-11T07:58:35;99794.00;;;2.10
7389;BMP180;3735;50.136;11.062;2023-02-11T08:01:13;99798.00;;;2.20
7389;BMP180;3735;50.136;11.062;2023-02-11T08:03:40;99787.00;;;2.40
7389;BMP180;3735;50.136;11.062;2023-02-11T08:06:14;99779.00;;;2.50
7389;BMP180;3735;50.136;11.062;2023-02-11T08:08:41;99788.00;;;2.50
7389;BMP180;3735;50.136;11.062;2023-02-11T08:11:08;99789.00;;;2.40
7389;BMP180;3735;50.136;11.062;2023-02-11T08:13:35;99786.00;;;2.60
7389;BMP180;3735;50.136;11.062;2023-02-11T08:16:02;99798.00;;;2.70
7389;BMP180;3735;50.136;11.062;2023-02-11T08:18:29;99800.00;;;2.70
7389;BMP180;3735;50.136;11.062;2023-02-11T08:20:55;99820.00;;;2.80
7389;BMP180;3735;50.136;11.062;2023-02-11T08:23:20;99822.00;;;3.00
7389;BMP180;3735;50.136;11.062;2023-02-11T08:25:46;99823.00;;;3.10
7389;BMP180;3735;50.136;11.062;2023-02-11T08:28:12;99794.00;;;2.70
7389;BMP180;3735;50.136;11.062;2023-02-11T08:30:38;99792.00;;;2.80
7389;BMP180;3735;50.136;11.062;2023-02-11T08:33:04;99793.00;;;2.70
7389;BMP180;3735;50.136;11.062;2023-02-11T08:35:29;99795.00;;;2.80
7389;BMP180;3735;50.136;11.062;2023-02-11T08:37:55;99793.00;;;2.80
7389;BMP180;3735;50.136;11.062;2023-02-11T08:40:21;99797.00;;;2.90
7389;BMP180;3735;50.136;11.062;2023-02-11T08:42:47;99806.00;;;2.90
7389;BMP180;3735;50.136;11.062;2023-02-11T08:45:13;99790.00;;;2.90
7389;BMP180;3735;50.136;11.062;2023-02-11T08:47:38;99796.00;;;2.90
7389;BMP180;3735;50.136;11.062;2023-02-11T08:50:05;99795.00;;;3.00
7389;BMP180;3735;50.136;11.062;2023-02-11T08:52:31;99805.00;;;3.20
7389;BMP180;3735;50.136;11.062;2023-02-11T08:54:57;99820.00;;;3.30
7389;BMP180;3735;50.136;11.062;2023-02-11T08:57:23;99822.00;;;3.40
7389;BMP180;3735;50.136;11.062;2023-02-11T08:59:49;99825.00;;;3.50
7389;BMP180;3735;50.136;11.062;2023-02-11T09:02:14;99804.00;;;3.50
7389;BMP180;3735;50.136;11.062;2023-02-11T09:04:40;99806.00;;;3.70
7389;BMP180;3735;50.136;11.062;2023-02-11T09:07:06;99808.00;;;3.70
7389;BMP180;3735;50.136;11.062;2023-02-11T09:09:32;99801.00;;;3.90
7389;BMP180;3735;50.136;11.062;2023-02-11T09:11:58;99803.00;;;3.80
7389;BMP180;3735;50.136;11.062;2023-02-11T09:14:26;99796.00;;;4.10
7389;BMP180;3735;50.136;11.062;2023-02-11T09:16:52;99811.00;;;4.10
7389;BMP180;3735;50.136;11.062;2023-02-11T09:19:19;99795.00;;;4.00
7389;BMP180;3735;50.136;11.062;2023-02-11T09:21:45;99802.00;;;3.90
7389;BMP180;3735;50.136;11.062;2023-02-11T09:24:11;99802.00;;;3.80
7389;BMP180;3735;50.136;11.062;2023-02-11T09:26:37;99790.00;;;3.80
7389;BMP180;3735;50.136;11.062;2023-02-11T09:29:04;99783.00;;;4.00
7389;BMP180;3735;50.136;11.062;2023-02-11T09:31:32;99800.00;;;4.10
7389;BMP180;3735;50.136;11.062;2023-02-11T09:34:03;99797.00;;;4.00
7389;BMP180;3735;50.136;11.062;2023-02-11T09:36:37;99812.00;;;4.10
7389;BMP180;3735;50.136;11.062;2023-02-11T09:39:06;99807.00;;;4.30
7389;BMP180;3735;50.136;11.062;2023-02-11T09:44:31;99797.00;;;4.30
7389;BMP180;3735;50.136;11.062;2023-02-11T09:47:02;99795.00;;;4.50
7389;BMP180;3735;50.136;11.062;2023-02-11T09:49:52;99788.00;;;4.70
7389;BMP180;3735;50.136;11.062;2023-02-11T09:57:55;99817.00;;;4.60
7389;BMP180;3735;50.136;11.062;2023-02-11T10:03:17;99811.00;;;4.40
7389;BMP180;3735;50.136;11.062;2023-02-11T10:11:51;99834.00;;;4.00
7389;BMP180;3735;50.136;11.062;2023-02-11T10:14:48;99844.00;;;4.00
7389;BMP180;3735;50.136;11.062;2023-02-11T10:23:47;99864.00;;;3.80
7389;BMP180;3735;50.136;11.062;2023-02-11T10:26:18;99856.00;;;3.90
7389;BMP180;3735;50.136;11.062;2023-02-11T10:28:47;99858.00;;;4.00
7389;BMP180;3735;50.136;11.062;2023-02-11T10:31:21;99855.00;;;4.00
7389;BMP180;3735;50.136;11.062;2023-02-11T10:34:04;99848.00;;;4.00
7389;BMP180;3735;50.136;11.062;2023-02-11T10:36:37;99843.00;;;4.00
7389;BMP180;3735;50.136;11.062;2023-02-11T10:39:18;99847.00;;;4.10
7389;BMP180;3735;50.136;11.062;2023-02-11T10:41:49;99836.00;;;4.00
7389;BMP180;3735;50.136;11.062;2023-02-11T10:47:10;99847.00;;;4.20
7389;BMP180;3735;50.136;11.062;2023-02-11T10:49:43;99844.00;;;4.20
7389;BMP180;3735;50.136;11.062;2023-02-11T10:52:22;99841.00;;;4.20
7389;BMP180;3735;50.136;11.062;2023-02-11T10:55:18;99839.00;;;4.00
7389;BMP180;3735;50.136;11.062;2023-02-11T10:58:01;99838.00;;;4.10
7389;BMP180;3735;50.136;11.062;2023-02-11T11:03:03;99854.00;;;4.10
7389;BMP180;3735;50.136;11.062;2023-02-11T11:05:48;99858.00;;;4.20
7389;BMP180;3735;50.136;11.062;2023-02-11T11:08:16;99863.00;;;4.20
7389;BMP180;3735;50.136;11.062;2023-02-11T11:11:06;99867.00;;;4.20
7389;BMP180;3735;50.136;11.062;2023-02-11T11:13:52;99872.00;;;4.20
7389;BMP180;3735;50.136;11.062;2023-02-11T11:16:31;99853.00;;;4.10
7389;BMP180;3735;50.136;11.062;2023-02-11T11:21:46;99863.00;;;4.10
7389;BMP180;3735;50.136;11.062;2023-02-11T11:24:28;99862.00;;;3.90
7389;BMP180;3735;50.136;11.062;2023-02-11T11:27:00;99871.00;;;3.90
7389;BMP180;3735;50.136;11.062;2023-02-11T11:29:38;99870.00;;;4.00
7389;BMP180;3735;50.136;11.062;2023-02-11T11:32:18;99855.00;;;4.10
7389;BMP180;3735;50.136;11.062;2023-02-11T11:34:54;99858.00;;;4.10
7389;BMP180;3735;50.136;11.062;2023-02-11T11:37:34;99854.00;;;4.20
7389;BMP180;3735;50.136;11.062;2023-02-11T11:40:25;99866.00;;;4.20
7389;BMP180;3735;50.136;11.062;2023-02-11T11:43:17;99848.00;;;4.20
7389;BMP180;3735;50.136;11.062;2023-02-11T11:45:58;99848.00;;;4.30
7389;BMP180;3735;50.136;11.062;2023-02-11T11:48:34;99851.00;;;4.30
7389;BMP180;3735;50.136;11.062;2023-02-11T11:51:09;99843.00;;;4.30
7389;BMP180;3735;50.136;11.062;2023-02-11T11:53:50;99846.00;;;4.30
7389;BMP180;3735;50.136;11.062;2023-02-11T11:56:25;99840.00;;;4.30
7389;BMP180;3735;50.136;11.062;2023-02-11T11:58:52;99853.00;;;4.30
7389;BMP180;3735;50.136;11.062;2023-02-11T12:05:22;99854.00;;;4.30
7389;BMP180;3735;50.136;11.062;2023-02-11T12:10:46;99846.00;;;4.40
7389;BMP180;3735;50.136;11.062;2023-02-11T12:31:45;99804.00;;;4.50
7389;BMP180;3735;50.136;11.062;2023-02-11T12:57:02;99820.00;;;4.40
7389;BMP180;3735;50.136;11.062;2023-02-11T13:08:12;99828.00;;;4.60
7389;BMP180;3735;50.136;11.062;2023-02-11T13:10:42;99823.00;;;4.60
7389;BMP180;3735;50.136;11.062;2023-02-11T13:13:24;99821.00;;;4.60
7389;BMP180;3735;50.136;11.062;2023-02-11T13:16:05;99811.00;;;4.60
7389;BMP180;3735;50.136;11.062;2023-02-11T13:18:50;99822.00;;;4.60
7389;BMP180;3735;50.136;11.062;2023-02-11T13:24:58;99809.00;;;4.60
7389;BMP180;3735;50.136;11.062;2023-02-11T13:27:57;99798.00;;;4.70
7389;BMP180;3735;50.136;11.062;2023-02-11T13:30:32;99812.00;;;4.60
7389;BMP180;3735;50.136;11.062;2023-02-11T13:35:32;99799.00;;;4.70
7389;BMP180;3735;50.136;11.062;2023-02-11T13:40:42;99806.00;;;4.70
7389;BMP180;3735;50.136;11.062;2023-02-11T13:43:25;99801.00;;;4.70
7389;BMP180;3735;50.136;11.062;2023-02-11T13:46:05;99823.00;;;4.60
7389;BMP180;3735;50.136;11.062;2023-02-11T13:48:37;99792.00;;;4.70
7389;BMP180;3735;50.136;11.062;2023-02-11T13:51:11;99779.00;;;4.80
7389;BMP180;3735;50.136;11.062;2023-02-11T13:53:55;99803.00;;;4.70
7389;BMP180;3735;50.136;11.062;2023-02-11T13:56:33;99803.00;;;4.80
7389;BMP180;3735;50.136;11.062;2023-02-11T14:02:08;99788.00;;;4.80
7389;BMP180;3735;50.136;11.062;2023-02-11T14:11:41;99810.00;;;4.80
7389;BMP180;3735;50.136;11.062;2023-02-11T14:19:33;99798.00;;;4.80
7389;BMP180;3735;50.136;11.062;2023-02-11T14:25:02;99778.00;;;4.80
7389;BMP180;3735;50.136;11.062;2023-02-11T14:27:43;99774.00;;;4.90
7389;BMP180;3735;50.136;11.062;2023-02-11T14:33:38;99807.00;;;4.90
7389;BMP180;3735;50.136;11.062;2023-02-11T14:41:52;99792.00;;;4.90
7389;BMP180;3735;50.136;11.062;2023-02-11T14:44:26;99803.00;;;5.00
7389;BMP180;3735;50.136;11.062;2023-02-11T14:46:54;99807.00;;;5.00
7389;BMP180;3735;50.136;11.062;2023-02-11T14:49:26;99805.00;;;5.10
7389;BMP180;3735;50.136;11.062;2023-02-11T14:52:07;99809.00;;;5.00
7389;BMP180;3735;50.136;11.062;2023-02-11T14:54:39;99813.00;;;5.00
7389;BMP180;3735;50.136;11.062;2023-02-11T14:57:16;99819.00;;;5.00
7389;BMP180;3735;50.136;11.062;2023-02-11T15:02:28;99808.00;;;4.90
7389;BMP180;3735;50.136;11.062;2023-02-11T15:05:13;99804.00;;;4.90
7389;BMP180;3735;50.136;11.062;2023-02-11T15:07:51;99808.00;;;5.00
7389;BMP180;3735;50.136;11.062;2023-02-11T15:10:41;99804.00;;;5.00
7389;BMP180;3735;50.136;11.062;2023-02-11T15:13:08;99794.00;;;4.90
7389;BMP180;3735;50.136;11.062;2023-02-11T15:15:40;99800.00;;;5.10
7389;BMP180;3735;50.136;11.062;2023-02-11T15:18:06;99796.00;;;5.10
7389;BMP180;3735;50.136;11.062;2023-02-11T15:20:34;99803.00;;;5.20
7389;BMP180;3735;50.136;11.062;2023-02-11T15:23:10;99808.00;;;5.20
7389;BMP180;3735;50.136;11.062;2023-02-11T15:25:44;99826.00;;;5.20
7389;BMP180;3735;50.136;11.062;2023-02-11T15:28:26;99820.00;;;5.10
7389;BMP180;3735;50.136;11.062;2023-02-11T15:31:13;99809.00;;;5.10
7389;BMP180;3735;50.136;11.062;2023-02-11T15:33:39;99819.00;;;5.20
7389;BMP180;3735;50.136;11.062;2023-02-11T15:36:08;99827.00;;;5.10
7389;BMP180;3735;50.136;11.062;2023-02-11T15:38:35;99822.00;;;5.10
7389;BMP180;3735;50.136;11.062;2023-02-11T15:41:03;99826.00;;;5.10
7389;BMP180;3735;50.136;11.062;2023-02-11T15:43:49;99832.00;;;5.10
7389;BMP180;3735;50.136;11.062;2023-02-11T15:46:22;99817.00;;;5.00
7389;BMP180;3735;50.136;11.062;2023-02-11T15:48:51;99833.00;;;5.00
7389;BMP180;3735;50.136;11.062;2023-02-11T15:51:37;99837.00;;;5.00
7389;BMP180;3735;50.136;11.062;2023-02-11T15:54:17;99836.00;;;4.90
7389;BMP180;3735;50.136;11.062;2023-02-11T15:56:48;99839.00;;;4.90
7389;BMP180;3735;50.136;11.062;2023-02-11T15:59:22;99837.00;;;4.90
7389;BMP180;3735;50.136;11.062;2023-02-11T16:01:52;99845.00;;;4.80
7389;BMP180;3735;50.136;11.062;2023-02-11T16:04:23;99841.00;;;4.70
7389;BMP180;3735;50.136;11.062;2023-02-11T16:06:50;99831.00;;;4.70
7389;BMP180;3735;50.136;11.062;2023-02-11T16:09:34;99834.00;;;4.60
7389;BMP180;3735;50.136;11.062;2023-02-11T16:12:19;99840.00;;;4.70
7389;BMP180;3735;50.136;11.062;2023-02-11T16:14:47;99853.00;;;4.70
7389;BMP180;3735;50.136;11.062;2023-02-11T16:17:27;99850.00;;;4.70
7389;BMP180;3735;50.136;11.062;2023-02-11T16:19:54;99849.00;;;4.80
7389;BMP180;3735;50.136;11.062;2023-02-11T16:22:29;99852.00;;;4.80
7389;BMP180;3735;50.136;11.062;2023-02-11T16:25:00;99851.00;;;4.80
7389;BMP180;3735;50.136;11.062;2023-02-11T16:27:37;99853.00;;;4.80
7389;BMP180;3735;50.136;11.062;2023-02-11T16:30:26;99852.00;;;4.80
7389;BMP180;3735;50.136;11.062;2023-02-11T16:32:52;99857.00;;;4.80
7389;BMP180;3735;50.136;11.062;2023-02-11T16:35:18;99862.00;;;4.80
7389;BMP180;3735;50.136;11.062;2023-02-11T16:37:44;99864.00;;;4.80
7389;BMP180;3735;50.136;11.062;2023-02-11T16:40:11;99867.00;;;4.80
7389;BMP180;3735;50.136;11.062;2023-02-11T16:42:37;99861.00;;;4.80
7389;BMP180;3735;50.136;11.062;2023-02-11T16:45:03;99866.00;;;4.80
7389;BMP180;3735;50.136;11.062;2023-02-11T16:47:29;99860.00;;;4.80
7389;BMP180;3735;50.136;11.062;2023-02-11T16:49:56;99864.00;;;4.70
7389;BMP180;3735;50.136;11.062;2023-02-11T16:52:24;99859.00;;;4.80
7389;BMP180;3735;50.136;11.062;2023-02-11T16:54:50;99867.00;;;4.80
7389;BMP180;3735;50.136;11.062;2023-02-11T16:57:17;99871.00;;;4.80
7389;BMP180;3735;50.136;11.062;2023-02-11T16:59:43;99867.00;;;4.80
7389;BMP180;3735;50.136;11.062;2023-02-11T17:02:33;99874.00;;;4.80
7389;BMP180;3735;50.136;11.062;2023-02-11T17:05:04;99876.00;;;4.80
7389;BMP180;3735;50.136;11.062;2023-02-11T17:07:30;99877.00;;;4.80
7389;BMP180;3735;50.136;11.062;2023-02-11T17:09:56;99883.00;;;4.70
7389;BMP180;3735;50.136;11.062;2023-02-11T17:12:22;99879.00;;;4.70
7389;BMP180;3735;50.136;11.062;2023-02-11T17:14:52;99888.00;;;4.70
7389;BMP180;3735;50.136;11.062;2023-02-11T17:17:18;99855.00;;;4.70
7389;BMP180;3735;50.136;11.062;2023-02-11T17:19:44;99881.00;;;4.70
7389;BMP180;3735;50.136;11.062;2023-02-11T17:22:12;99873.00;;;4.70
7389;BMP180;3735;50.136;11.062;2023-02-11T17:24:38;99884.00;;;4.80
7389;BMP180;3735;50.136;11.062;2023-02-11T17:27:03;99883.00;;;4.80